Data for 09/12/2013

Time Sea-Level Adjusted Pressure Absolute Pressure Temperature Relative Humidity Dew Point   
(mb) (inHg) (mb) (inHg) (C) (F) (%) (C) (F)
00:05 1026 30.3 855 25.25 16.6 61.9 52 6.7 44.1
00:10 1026 30.3 855 25.25 16.5 61.7 52 6.6 43.9
00:15 1026 30.3 855 25.25 16.6 61.8 51 6.4 43.6
00:20 1026 30.3 855 25.25 16.7 62 51 6.6 43.9
00:25 1026 30.3 855 25.25 16.6 61.8 51 6.5 43.7
00:30 1026 30.3 855 25.25 16.6 61.8 51 6.4 43.6
00:35 1026 30.3 855 25.25 16.6 61.8 51 6.5 43.7
00:40 1026 30.3 855 25.25 16.5 61.6 52 6.6 43.8
00:45 1026 30.3 855 25.25 16.4 61.5 52 6.5 43.7
00:50 1026 30.3 855 25.25 16.3 61.4 52 6.5 43.7
00:55 1026 30.3 855 25.25 16.2 61.2 52 6.5 43.6
01:00 1026 30.3 856 25.28 16.1 61 53 6.5 43.6
01:05 1026 30.3 856 25.28 16 60.8 53 6.4 43.6
01:10 1026 30.3 856 25.28 15.9 60.5 53 6.4 43.6
01:15 1026 30.3 856 25.28 15.8 60.4 53 6.4 43.5
01:20 1026 30.3 856 25.28 15.7 60.3 53 6.4 43.4
01:25 1026 30.3 856 25.28 15.7 60.3 53 6.4 43.4
01:30 1026 30.3 856 25.28 15.7 60.3 53 6.3 43.4
01:35 1026 30.3 856 25.28 15.6 60.1 54 6.4 43.4
01:40 1027 30.33 856 25.28 15.5 59.9 54 6.4 43.5
01:45 1027 30.33 856 25.28 15.4 59.6 54 6.3 43.3
01:50 1027 30.33 856 25.28 15.4 59.7 54 6.3 43.3
01:55 1027 30.33 856 25.28 15.3 59.6 55 6.3 43.4
02:00 1027 30.33 856 25.28 15.3 59.5 54 6.2 43.2
02:05 1027 30.33 856 25.28 15.2 59.4 55 6.3 43.3
02:10 1027 30.33 856 25.28 15.2 59.3 55 6.2 43.2
02:15 1027 30.33 856 25.28 15.2 59.4 55 6.2 43.2
02:20 1027 30.33 856 25.28 15.2 59.3 54 6.1 43
02:25 1027 30.33 856 25.28 15.2 59.4 54 6.1 43
02:30 1026 30.3 856 25.28 15.2 59.4 54 6.1 42.9
02:35 1026 30.3 856 25.28 15.3 59.5 54 6.1 42.9
02:40 1026 30.3 856 25.28 15.3 59.5 54 6.1 43
02:45 1026 30.3 856 25.28 15.1 59.2 54 6 42.8
02:50 1026 30.3 856 25.28 15.1 59.2 54 6.1 42.9
02:55 1026 30.3 856 25.28 15 59.1 54 6 42.8
03:00 1026 30.3 856 25.28 15 59 54 5.9 42.7
03:05 1026 30.3 856 25.28 15 59 54 6 42.7
03:10 1026 30.3 856 25.28 14.9 58.9 55 6 42.8
03:15 1026 30.3 855 25.25 14.9 58.7 55 5.9 42.7
03:20 1026 30.3 855 25.25 14.8 58.7 55 5.9 42.5
03:25 1026 30.3 855 25.25 14.9 58.7 54 5.8 42.5
03:30 1026 30.3 855 25.25 14.9 58.7 55 5.9 42.5
03:35 1026 30.3 855 25.25 14.8 58.7 55 6.1 42.9
03:40 1026 30.3 855 25.25 14.7 58.5 55 5.9 42.6
03:45 1026 30.3 855 25.25 14.7 58.4 55 5.9 42.6
03:50 1026 30.3 855 25.25 14.7 58.4 55 5.9 42.5
03:55 1026 30.3 855 25.25 14.5 58.2 56 5.9 42.5
04:00 1026 30.3 855 25.25 14.4 58 56 5.8 42.5
04:05 1026 30.3 855 25.25 14.4 58 56 5.8 42.4
04:10 1026 30.3 855 25.25 14.4 58 56 5.7 42.3
04:15 1026 30.3 855 25.25 14.4 58 56 5.8 42.4
04:20 1026 30.3 855 25.25 14.4 57.9 56 5.8 42.5
04:25 1026 30.3 855 25.25 14.3 57.7 56 5.8 42.4
04:30 1026 30.3 855 25.25 14.3 57.8 56 5.7 42.3
04:35 1026 30.3 855 25.25 14.3 57.8 56 5.7 42.2
04:40 1026 30.3 855 25.25 14.3 57.7 56 5.8 42.5
04:45 1026 30.3 855 25.25 14.2 57.6 56 5.6 42.2
04:50 1026 30.3 855 25.25 14.3 57.7 56 5.8 42.4
04:55 1026 30.3 855 25.25 14.2 57.5 56 5.6 42.1
05:00 1026 30.3 855 25.25 14.1 57.5 56 5.7 42.2
05:05 1026 30.3 855 25.25 14.2 57.5 56 5.6 42.2
05:10 1026 30.3 855 25.25 14.2 57.6 56 5.6 42
05:15 1026 30.3 855 25.25 14.3 57.7 56 5.6 42.1
05:20 1026 30.3 855 25.25 14.3 57.8 55 5.6 42
05:25 1026 30.3 855 25.25 14.4 57.8 56 5.7 42.2
05:30 1026 30.3 855 25.25 14.4 57.9 55 5.6 42.1
05:35 1026 30.3 855 25.25 14.3 57.8 55 5.6 42
05:40 1026 30.3 855 25.25 14.3 57.7 56 5.6 42.1
05:45 1026 30.3 855 25.25 14.3 57.7 56 5.5 42
05:50 1026 30.3 855 25.25 14.3 57.7 55 5.5 41.9
05:55 1026 30.3 855 25.25 14.4 57.8 55 5.6 42.1
06:00 1026 30.3 855 25.25 14.4 57.8 55 5.5 41.8
06:05 1026 30.3 855 25.25 14.3 57.8 55 5.6 42
06:10 1026 30.3 855 25.25 14.3 57.7 56 5.6 42.1
06:15 1026 30.3 855 25.25 14.1 57.4 56 5.5 41.9
06:20 1026 30.3 855 25.25 14.2 57.6 55 5.5 41.8
06:25 1026 30.3 855 25.25 14.3 57.7 55 5.4 41.7
06:30 1026 30.3 855 25.25 14.5 58.2 54 5.3 41.6
06:35 1026 30.3 855 25.25 14.9 58.8 53 5.5 41.8
06:40 1026 30.3 855 25.25 15 58.9 53 5.4 41.8
06:45 1026 30.3 855 25.25 15.1 59.1 52 5.4 41.7
06:50 1026 30.3 855 25.25 15.1 59.2 52 5.4 41.7
06:55 1026 30.3 855 25.25 15.2 59.4 51 5.4 41.6
07:00 1026 30.3 855 25.25 15.3 59.5 52 5.5 41.8
07:05 1026 30.3 855 25.25 15.2 59.3 51 5.3 41.5
07:10 1026 30.3 855 25.25 15.3 59.5 51 5.3 41.6
07:15 1026 30.3 855 25.25 15.3 59.5 51 5.3 41.6
07:20 1026 30.3 855 25.25 15.4 59.7 51 5.3 41.6
07:25 1026 30.3 855 25.25 15.6 60 51 5.4 41.8
07:30 1026 30.3 855 25.25 15.6 60.1 50 5.3 41.6
07:35 1026 30.3 856 25.28 15.8 60.4 49 5.3 41.5
07:40 1026 30.3 855 25.25 16.1 60.9 49 5.3 41.6
07:45 1026 30.3 855 25.25 16 60.8 49 5.5 41.8
07:50 1026 30.3 855 25.25 16.2 61.1 48 5.3 41.5
07:55 1026 30.3 855 25.25 16.2 61.2 48 5.4 41.7
08:00 1026 30.3 855 25.25 16.3 61.3 49 5.5 42
08:05 1026 30.3 855 25.25 16.1 61 49 5.5 41.9
08:10 1026 30.3 855 25.25 15.9 60.6 50 5.5 42
08:15 1026 30.3 855 25.25 15.9 60.6 49 5.3 41.6
08:20 1026 30.3 855 25.25 16 60.8 49 5.3 41.6
08:25 1026 30.3 855 25.25 16.2 61.1 48 5.3 41.6
08:30 1026 30.3 855 25.25 16.2 61.2 48 5.4 41.8
08:35 1026 30.3 855 25.25 16.2 61.2 49 5.6 42.1
08:40 1026 30.3 855 25.25 16.3 61.4 49 5.6 42.1
08:45 1026 30.3 855 25.25 16.3 61.4 48 5.5 41.9
08:50 1026 30.3 855 25.25 16.4 61.4 48 5.5 41.8
08:55 1026 30.3 855 25.25 16.5 61.6 48 5.5 42
09:00 1026 30.3 855 25.25 16.7 62 47 5.4 41.8
09:05 1026 30.3 855 25.25 16.9 62.5 46 5.3 41.5
09:10 1026 30.3 855 25.25 17.4 63.3 45 5.4 41.7
09:15 1026 30.3 855 25.25 17.7 63.9 44 5.4 41.7
09:20 1026 30.3 855 25.25 17.9 64.2 44 5.5 41.9
09:25 1026 30.3 855 25.25 17.9 64.3 43 5.4 41.7
09:30 1026 30.3 855 25.25 18 64.3 44 5.7 42.2
09:35 1026 30.3 855 25.25 18.1 64.5 43 5.6 42.1
09:40 1026 30.3 855 25.25 18.4 65.1 43 5.6 42.2
09:45 1026 30.3 855 25.25 18.7 65.7 42 5.6 42
09:50 1026 30.3 855 25.25 18.7 65.6 42 5.7 42.2
09:55 1025 30.27 855 25.25 18.9 66 41 5.6 42
10:00 1025 30.27 855 25.25 19.6 67.3 39 5.3 41.6
10:05 1025 30.27 855 25.25 20.1 68.3 39 5.8 42.4
10:10 1025 30.27 855 25.25 20.4 68.6 38 5.9 42.5
10:15 1025 30.27 854 25.22 20.8 69.4 37 5.6 42.1
10:20 1025 30.27 854 25.22 20.9 69.7 37 5.9 42.7
10:25 1025 30.27 854 25.22 21.3 70.3 38 6.4 43.5
10:30 1025 30.27 854 25.22 21.6 70.8 36 6 42.9
10:35 1025 30.27 854 25.22 21.4 70.4 39 6.9 44.4
10:40 1025 30.27 854 25.22 21.4 70.5 40 7.3 45.1
10:45 1025 30.27 854 25.22 21.6 70.8 37 6.5 43.7
10:50 1025 30.27 854 25.22 21.7 71.1 37 6.7 44.1
10:55 1025 30.27 854 25.22 22.2 72 35 6 42.9
11:00 1025 30.27 854 25.22 22.5 72.4 32 5 41
11:05 1025 30.27 854 25.22 22.3 72.1 33 5.2 41.4
11:10 1025 30.27 854 25.22 22.4 72.3 37 7 44.6
11:15 1025 30.27 854 25.22 22.4 72.3 33 5.6 42
11:20 1025 30.27 854 25.22 22.2 71.9 37 7.1 44.8
11:25 1025 30.27 854 25.22 22 71.6 36 6.5 43.6
11:30 1025 30.27 854 25.22 21.9 71.3 37 6.6 44
11:35 1024 30.24 854 25.22 21.4 70.5 38 6.6 43.8
11:40 1024 30.24 854 25.22 21.6 70.9 39 7.3 45.2
11:45 1024 30.24 854 25.22 21.6 70.8 38 6.8 44.3
11:50 1024 30.24 853 25.19 21.8 71.2 34 5.3 41.6
11:55 1024 30.24 853 25.19 21.8 71.3 35 5.7 42.3
12:00 1024 30.24 853 25.19 22 71.5 34 5.7 42.3
12:05 1024 30.24 853 25.19 22 71.6 33 5.3 41.5
12:10 1024 30.24 853 25.19 22.1 71.8 33 5.2 41.4
12:15 1024 30.24 853 25.19 22.4 72.2 33 5.4 41.7
12:20 1024 30.24 853 25.19 22.3 72.1 34 5.8 42.4
12:25 1024 30.24 853 25.19 22.2 71.9 35 6 42.8
12:30 1024 30.24 853 25.19 21.8 71.2 34 5.6 42
12:35 1024 30.24 853 25.19 22 71.6 33 5.4 41.7
12:40 1024 30.24 853 25.19 22.1 71.8 34 5.5 41.9
12:45 1024 30.24 853 25.19 22.7 72.9 31 4.9 40.9
12:50 1024 30.24 853 25.19 23.4 74.1 31 5.3 41.6
12:55 1024 30.24 853 25.19 23.5 74.3 31 5.4 41.7
13:00 1024 30.24 853 25.19 23.8 74.8 30 5.5 41.9
13:05 1024 30.24 853 25.19 23.9 75 30 5.4 41.8
13:10 1023 30.21 853 25.19 24.1 75.4 29 5.2 41.3
13:15 1023 30.21 853 25.19 24.3 75.7 29 5.5 41.9
13:20 1023 30.21 853 25.19 24.1 75.4 30 5.6 42
13:25 1023 30.21 852 25.16 23.7 74.7 30 5.3 41.6
13:30 1023 30.21 852 25.16 23.9 74.9 30 5.4 41.7
13:35 1023 30.21 852 25.16 23.9 75 31 5.8 42.5
13:40 1023 30.21 852 25.16 23.2 73.8 31 5.3 41.5
13:45 1023 30.21 852 25.16 23.3 74 30 5.1 41.2
13:50 1023 30.21 852 25.16 23.9 74.9 29 5.1 41.2
13:55 1023 30.21 852 25.16 24 75.2 29 5 41
14:00 1023 30.21 852 25.16 24.2 75.5 29 5.4 41.7
14:05 1023 30.21 852 25.16 24.5 76.1 28 5.1 41.2
14:10 1023 30.21 852 25.16 24.7 76.4 28 5.4 41.8
14:15 1023 30.21 852 25.16 24.2 75.6 29 5.5 41.9
14:20 1023 30.21 852 25.16 23.9 75 30 5.3 41.6
14:25 1023 30.21 852 25.16 23.8 74.8 30 5.5 41.9
14:30 1023 30.21 852 25.16 23.5 74.3 31 5.5 41.9
14:35 1023 30.21 852 25.16 23.3 73.9 31 5.6 42
14:40 1023 30.21 852 25.16 23.1 73.6 32 5.7 42.2
14:45 1023 30.21 852 25.16 23.1 73.5 32 5.9 42.6
14:50 1023 30.21 852 25.16 23.2 73.7 32 6 42.7
14:55 1023 30.21 852 25.16 23 73.3 32 5.8 42.4
15:00 1023 30.21 852 25.16 23 73.3 32 5.6 42.1
15:05 1023 30.21 852 25.16 22.9 73.3 33 5.8 42.5
15:10 1023 30.21 852 25.16 22.9 73.1 32 5.7 42.2
15:15 1023 30.21 852 25.16 22.7 72.9 32 5.5 41.8
15:20 1023 30.21 852 25.16 22.7 72.8 32 5.5 41.8
15:25 1022 30.18 852 25.16 22.6 72.7 33 5.6 42
15:30 1022 30.18 852 25.16 22.6 72.7 33 5.8 42.4
15:35 1022 30.18 852 25.16 22.5 72.5 33 5.8 42.4
15:40 1022 30.18 852 25.16 22.4 72.3 33 5.5 42
15:45 1022 30.18 852 25.16 22.3 72.1 34 5.7 42.3
15:50 1022 30.18 852 25.16 22.2 71.9 34 5.7 42.2
15:55 1022 30.18 852 25.16 22.1 71.8 34 5.6 42.2
16:00 1022 30.18 852 25.16 22.1 71.8 35 6 42.8
16:05 1022 30.18 852 25.16 22.1 71.8 34 5.7 42.3
16:10 1022 30.18 851 25.13 22.1 71.7 33 5.4 41.7
16:15 1022 30.18 851 25.13 22.1 71.7 34 5.7 42.2
16:20 1022 30.18 851 25.13 22.1 71.7 35 5.9 42.7
16:25 1022 30.18 851 25.13 22.1 71.7 35 6.1 43
16:30 1022 30.18 851 25.13 22.1 71.8 35 6.2 43.1
16:35 1022 30.18 851 25.13 22.1 71.8 35 6.2 43.2
16:40 1022 30.18 851 25.13 22.1 71.9 35 6.1 42.9
16:45 1022 30.18 851 25.13 22.1 71.8 35 6.1 43.1
16:50 1022 30.18 851 25.13 22.1 71.8 35 6.2 43.2
16:55 1022 30.18 851 25.13 22.2 71.9 35 6 42.8
17:00 1022 30.18 851 25.13 22.3 72.1 35 6.4 43.5
17:05 1022 30.18 851 25.13 22.3 72.1 34 6 42.9
17:10 1022 30.18 851 25.13 22.3 72.1 35 6.3 43.3
17:15 1022 30.18 851 25.13 22.3 72.1 35 6.4 43.6
17:20 1022 30.18 851 25.13 22.3 72.1 35 6.4 43.5
17:25 1022 30.18 851 25.13 22.2 71.9 36 6.5 43.6
17:30 1022 30.18 851 25.13 22.1 71.8 36 6.5 43.6
17:35 1022 30.18 851 25.13 22.1 71.8 36 6.6 43.8
17:40 1022 30.18 851 25.13 22.1 71.7 36 6.4 43.6
17:45 1022 30.18 851 25.13 22 71.7 36 6.5 43.7
17:50 1022 30.18 851 25.13 22 71.6 36 6.6 43.9
17:55 1022 30.18 851 25.13 21.9 71.4 37 6.8 44.2
18:00 1022 30.18 851 25.13 21.8 71.3 37 6.5 43.8
18:05 1022 30.18 851 25.13 21.8 71.2 37 6.5 43.6
18:10 1022 30.18 851 25.13 21.7 71.1 37 6.4 43.6
18:15 1022 30.18 851 25.13 21.7 71 37 6.4 43.4
18:20 1022 30.18 851 25.13 21.6 71 37 6.7 44
18:25 1022 30.18 851 25.13 21.6 70.9 37 6.3 43.3
18:30 1022 30.18 851 25.13 21.6 71 37 6.3 43.4
18:35 1022 30.18 851 25.13 21.6 70.9 37 6.4 43.5
18:40 1022 30.18 851 25.13 21.6 70.8 37 6.5 43.7
18:45 1022 30.18 851 25.13 21.5 70.7 37 6.5 43.7
18:50 1022 30.18 851 25.13 21.4 70.5 38 6.6 43.9
18:55 1022 30.18 851 25.13 21.2 70.2 38 6.6 43.8
19:00 1022 30.18 851 25.13 21.1 70 39 6.7 44.1
19:05 1022 30.18 851 25.13 21.1 69.9 39 6.6 43.9
19:10 1022 30.18 851 25.13 21 69.7 40 6.8 44.3
19:15 1022 30.18 851 25.13 20.8 69.4 40 6.9 44.5
19:20 1022 30.18 851 25.13 20.7 69.2 40 6.9 44.5
19:25 1022 30.18 851 25.13 20.6 69 41 7 44.6
19:30 1022 30.18 851 25.13 20.5 68.9 41 6.9 44.5
19:35 1022 30.18 851 25.13 20.4 68.8 40 6.7 44.1
19:40 1021 30.15 851 25.13 20.5 68.9 40 6.5 43.7
19:45 1021 30.15 851 25.13 20.6 69.1 38 6.1 43
19:50 1022 30.18 851 25.13 20.7 69.3 38 6.2 43.2
19:55 1022 30.18 851 25.13 20.7 69.3 38 6.2 43.2
20:00 1022 30.18 851 25.13 20.7 69.2 38 6.2 43.1
20:05 1022 30.18 851 25.13 20.6 69 39 6.2 43.2
20:10 1022 30.18 851 25.13 20.5 68.9 39 6.3 43.3
20:15 1022 30.18 851 25.13 20.4 68.7 39 6.3 43.3
20:20 1022 30.18 851 25.13 20.3 68.5 39 6.2 43.1
20:25 1022 30.18 851 25.13 20.3 68.5 40 6.2 43.2
20:30 1022 30.18 851 25.13 20.2 68.3 40 6.4 43.6
20:35 1022 30.18 851 25.13 20 67.9 41 6.5 43.8
20:40 1022 30.18 851 25.13 19.8 67.7 42 6.7 44.1
20:45 1022 30.18 851 25.13 19.7 67.4 42 6.7 44.1
20:50 1022 30.18 851 25.13 19.6 67.3 43 6.8 44.2
20:55 1022 30.18 851 25.13 19.5 67.1 43 6.9 44.4
21:00 1021 30.15 851 25.13 19.4 66.9 44 6.9 44.5
21:05 1021 30.15 851 25.13 19.2 66.6 44 6.9 44.4
21:10 1021 30.15 851 25.13 19.2 66.5 44 6.9 44.4
21:15 1021 30.15 851 25.13 19.1 66.4 44 6.8 44.3
21:20 1021 30.15 850 25.1 19.1 66.4 44 6.7 44.1
21:25 1021 30.15 850 25.1 19 66.3 44 6.7 44
21:30 1021 30.15 850 25.1 19 66.1 44 6.7 44.1
21:35 1021 30.15 850 25.1 18.9 65.9 45 6.8 44.2
21:40 1021 30.15 850 25.1 18.7 65.7 45 6.8 44.3
21:45 1021 30.15 850 25.1 18.5 65.4 46 6.8 44.3
21:50 1021 30.15 850 25.1 18.4 65.2 46 6.8 44.2
21:55 1021 30.15 850 25.1 18.3 64.9 47 6.9 44.4
22:00 1021 30.15 850 25.1 18.2 64.7 47 6.9 44.4
22:05 1021 30.15 850 25.1 18.1 64.5 48 7 44.6
22:10 1021 30.15 850 25.1 17.9 64.2 49 7 44.7
22:15 1021 30.15 850 25.1 17.8 64.1 49 7.1 44.8
22:20 1021 30.15 850 25.1 17.7 63.8 49 7.1 44.7
22:25 1021 30.15 850 25.1 17.6 63.7 50 7.2 44.9
22:30 1021 30.15 850 25.1 17.5 63.6 50 7.2 45
22:35 1021 30.15 850 25.1 17.4 63.4 51 7.2 44.9
22:40 1021 30.15 850 25.1 17.4 63.3 51 7.3 45.1
22:45 1021 30.15 850 25.1 17.3 63.1 51 7.3 45.1
22:50 1021 30.15 850 25.1 17.2 63 52 7.3 45.1
22:55 1021 30.15 850 25.1 17.2 63 52 7.2 45
23:00 1021 30.15 850 25.1 17.1 62.7 52 7.3 45.1
23:05 1021 30.15 850 25.1 17 62.6 52 7.3 45.1
23:10 1021 30.15 850 25.1 17 62.6 53 7.3 45.2
23:15 1021 30.15 850 25.1 17 62.6 53 7.3 45.2
23:20 1020 30.12 850 25.1 17 62.5 53 7.3 45.1
23:25 1020 30.12 850 25.1 17 62.6 53 7.4 45.3
23:30 1020 30.12 850 25.1 17 62.5 53 7.3 45.2
23:35 1020 30.12 849 25.07 17 62.7 53 7.4 45.4
23:40 1020 30.12 849 25.07 17.1 62.7 53 7.4 45.4
23:45 1020 30.12 849 25.07 16.9 62.3 54 7.5 45.5
23:50 1020 30.12 849 25.07 16.8 62.3 54 7.4 45.4
23:55 1020 30.12 849 25.07 16.9 62.3 54 7.5 45.5
24:00 1020 30.12 849 25.07 16.9 62.4 54 7.5 45.5